Time;durP1;ratioP1;P1;durP2;ratioP2;P2;SDS_P1;SDS_P2;PMS_P1;PMS_P2;Temp;Humidity;BMP_temperature;BMP_pressure;BME280_temperature;BME280_humidity;BME280_pressure;Samples;Min_cycle;Max_cycle;Signal;HPM_P1;HPM_P2
2021/12/02 00:02:23;;;;;;;2.42;0.50;;;;;;;5.12;75.96;97676.44;10407898;28;20053;-76
2021/12/02 00:07:25;;;;;;;1.65;0.30;;;;;;;5.09;76.43;97680.06;10423903;28;20042;-74
2021/12/02 00:12:26;;;;;;;0.60;0.30;;;;;;;5.14;76.71;97682.44;10425795;28;20045;-75
2021/12/02 00:17:33;;;;;;;0.93;0.57;;;;;;;5.11;76.88;97693.84;10426147;28;20049;-75
2021/12/02 00:23:13;;;;;;;1.25;0.40;;;;;;;5.11;77.58;97690.38;10426333;28;20391;-75
2021/12/02 00:28:18;;;;;;;1.15;0.30;;;;;;;5.12;77.83;97697.28;10391993;28;20055;-75
2021/12/02 00:33:24;;;;;;;0.75;0.40;;;;;;;5.14;78.20;97685.03;10408576;28;20044;-76
2021/12/02 00:38:26;;;;;;;0.40;0.40;;;;;;;5.01;78.87;97709.03;10408125;28;20140;-74
2021/12/02 00:43:29;;;;;;;1.70;0.85;;;;;;;5.07;78.65;97707.91;10390033;28;20095;-74
2021/12/02 00:48:35;;;;;;;0.30;0.20;;;;;;;5.03;77.30;97712.41;10409692;28;20433;-76
2021/12/02 00:53:42;;;;;;;0.68;0.30;;;;;;;5.00;76.06;97719.50;10412172;28;20052;-75
2021/12/02 00:58:49;;;;;;;0.80;0.30;;;;;;;5.01;73.61;97719.47;10395753;28;20507;-74
2021/12/02 01:03:55;;;;;;;0.65;0.40;;;;;;;5.11;72.05;97735.50;10411702;28;20045;-75
2021/12/02 01:08:57;;;;;;;1.10;0.43;;;;;;;5.11;71.31;97745.91;10427948;28;20215;-76
2021/12/02 01:13:59;;;;;;;2.45;0.50;;;;;;;5.05;71.57;97744.44;10427901;28;20542;-75
2021/12/02 01:19:03;;;;;;;1.33;0.40;;;;;;;5.10;70.05;97754.66;10409485;28;20061;-75
2021/12/02 01:24:09;;;;;;;0.82;0.43;;;;;;;5.06;68.36;97763.50;10401266;28;20080;-74
2021/12/02 01:29:12;;;;;;;2.00;0.40;;;;;;;4.95;68.92;97763.16;10419206;28;20410;-74
2021/12/02 01:34:15;;;;;;;2.67;0.60;;;;;;;5.10;66.45;97756.41;10419834;28;20084;-75
2021/12/02 01:39:17;;;;;;;0.82;0.30;;;;;;;5.02;67.00;97775.81;10418837;28;20086;-76
2021/12/02 01:44:20;;;;;;;0.98;0.38;;;;;;;4.95;67.72;97787.41;10437199;28;20042;-75
2021/12/02 01:49:25;;;;;;;3.80;0.70;;;;;;;4.84;69.03;97794.03;10438008;28;20475;-74
2021/12/02 01:54:27;;;;;;;2.47;0.60;;;;;;;4.81;68.87;97795.00;10418677;28;20141;-76
2021/12/02 01:59:34;;;;;;;1.02;0.47;;;;;;;4.75;68.78;97797.88;10401960;28;20041;-75
2021/12/02 02:04:37;;;;;;;1.98;0.38;;;;;;;4.55;69.71;97783.97;10416611;28;20095;-74
2021/12/02 02:09:39;;;;;;;2.50;0.60;;;;;;;4.48;70.14;97797.34;10415973;28;20498;-72
2021/12/02 02:14:43;;;;;;;3.08;0.50;;;;;;;4.57;69.31;97789.13;10426764;28;20441;-72
2021/12/02 02:19:45;;;;;;;2.13;0.40;;;;;;;4.61;69.47;97792.44;10407013;28;20051;-72
2021/12/02 02:24:47;;;;;;;4.85;0.50;;;;;;;4.50;69.95;97779.88;10423872;28;20037;-73
2021/12/02 02:29:49;;;;;;;2.80;0.70;;;;;;;4.34;71.07;97784.91;10406764;28;20042;-72
2021/12/02 02:34:50;;;;;;;3.35;0.50;;;;;;;4.42;69.73;97777.59;10422961;28;20049;-74
2021/12/02 02:39:52;;;;;;;3.22;0.60;;;;;;;4.34;70.28;97797.06;10425512;28;20045;-72
2021/12/02 02:44:54;;;;;;;1.70;0.57;;;;;;;4.34;70.02;97810.06;10424634;28;20507;-73
2021/12/02 02:49:56;;;;;;;3.90;1.27;;;;;;;4.18;69.79;97821.13;10390202;28;20091;-73
2021/12/02 02:54:58;;;;;;;1.98;0.57;;;;;;;4.40;68.35;97836.66;10389100;28;20049;-72
2021/12/02 03:10:21;;;;;;;1.00;0.40;;;;;;;4.58;67.65;97844.59;10423792;28;20040;-73
2021/12/02 03:20:24;;;;;;;1.98;0.68;;;;;;;4.44;67.95;97871.22;10423073;28;19921;-73
2021/12/02 03:25:26;;;;;;;2.13;0.73;;;;;;;4.34;68.16;97872.47;10423818;28;20053;-73
2021/12/02 03:30:29;;;;;;;1.70;0.60;;;;;;;4.23;68.92;97883.31;10422416;28;20046;-72
2021/12/02 03:35:31;;;;;;;2.53;0.60;;;;;;;4.21;69.31;97885.16;10405352;28;20061;-71
2021/12/02 03:40:45;;;;;;;3.05;0.70;;;;;;;4.38;67.95;97894.84;10423234;28;20467;-74
2021/12/02 03:45:46;;;;;;;1.25;0.45;;;;;;;4.35;68.32;97887.19;10423549;28;20065;-72
2021/12/02 03:50:48;;;;;;;1.83;0.65;;;;;;;4.40;67.54;97904.31;10405741;28;20057;-72
2021/12/02 03:55:50;;;;;;;3.58;0.75;;;;;;;4.27;68.13;97895.31;10405164;28;20072;-72
2021/12/02 04:00:51;;;;;;;5.43;0.93;;;;;;;4.32;68.07;97890.75;10422236;28;20079;-72
2021/12/02 04:05:53;;;;;;;4.03;0.80;;;;;;;4.19;68.48;97894.75;10404437;28;20077;-72
2021/12/02 04:11:10;;;;;;;2.05;0.60;;;;;;;4.24;67.68;97887.63;10422098;28;20136;-72
2021/12/02 04:16:17;;;;;;;3.83;0.95;;;;;;;4.15;67.37;97906.19;10403906;28;20442;-73
2021/12/02 04:21:18;;;;;;;3.10;0.73;;;;;;;4.24;67.43;97913.63;10421609;28;20041;-72
2021/12/02 04:26:20;;;;;;;4.32;0.80;;;;;;;4.10;68.54;97936.72;10420424;28;20446;-72
2021/12/02 04:31:22;;;;;;;3.53;0.73;;;;;;;4.17;68.11;97935.59;10401579;28;20050;-72
2021/12/02 04:36:23;;;;;;;3.03;0.77;;;;;;;4.10;68.36;97934.13;10419288;28;20092;-72
2021/12/02 04:41:25;;;;;;;3.10;0.60;;;;;;;4.24;66.83;97934.44;10419017;28;20129;-72
2021/12/02 04:46:27;;;;;;;2.97;0.77;;;;;;;4.08;67.92;97942.00;10420629;28;20045;-72
2021/12/02 04:51:29;;;;;;;2.20;0.73;;;;;;;4.15;66.81;97946.03;10421685;28;20049;-72
2021/12/02 04:56:30;;;;;;;2.38;0.80;;;;;;;4.09;66.73;97955.84;10419483;28;20352;-72
2021/12/02 05:01:32;;;;;;;3.72;0.70;;;;;;;4.08;66.57;97956.75;10419894;28;20046;-72
2021/12/02 05:06:34;;;;;;;2.47;0.60;;;;;;;4.09;66.07;97955.84;10418614;28;20121;-72
2021/12/02 05:11:37;;;;;;;3.20;0.60;;;;;;;4.06;67.15;97962.00;10418757;28;20418;-72
2021/12/02 05:16:40;;;;;;;2.95;0.88;;;;;;;4.13;66.60;97973.03;10401712;28;20087;-75
2021/12/02 05:21:42;;;;;;;3.30;0.63;;;;;;;4.10;67.02;97973.13;10418135;28;20060;-72
2021/12/02 05:26:44;;;;;;;3.40;0.60;;;;;;;4.00;67.08;97978.69;10401504;28;20049;-72
2021/12/02 05:31:45;;;;;;;3.20;0.60;;;;;;;3.98;66.63;97974.44;10417448;28;20053;-72
2021/12/02 05:36:47;;;;;;;2.25;0.80;;;;;;;3.90;67.24;97973.91;10416978;28;20048;-72
2021/12/02 05:41:53;;;;;;;3.05;0.50;;;;;;;3.71;68.07;97984.97;10417179;28;20054;-73
2021/12/02 05:46:54;;;;;;;3.22;0.70;;;;;;;3.70;67.64;97978.06;10417669;28;20072;-72
2021/12/02 05:51:56;;;;;;;4.00;0.90;;;;;;;3.67;68.05;97995.53;10417885;28;20045;-72
2021/12/02 05:56:58;;;;;;;2.30;0.60;;;;;;;3.57;68.29;97997.63;10417993;28;20041;-73
2021/12/02 06:01:59;;;;;;;4.60;0.93;;;;;;;3.45;68.62;98016.22;10417876;28;20510;-71
2021/12/02 06:07:01;;;;;;;4.22;0.80;;;;;;;3.40;68.95;98020.75;10404198;28;20041;-71
2021/12/02 06:12:03;;;;;;;4.72;1.02;;;;;;;3.33;69.72;98029.66;10425252;28;20046;-72
2021/12/02 06:17:05;;;;;;;5.88;0.73;;;;;;;3.28;70.15;98025.47;10426327;28;20132;-72
2021/12/02 06:22:08;;;;;;;2.75;0.90;;;;;;;3.35;70.00;98030.44;10424485;28;20103;-72
2021/12/02 06:27:11;;;;;;;1.55;0.73;;;;;;;3.29;69.69;98036.72;10424728;28;20050;-72
2021/12/02 06:32:12;;;;;;;2.67;0.82;;;;;;;3.17;70.12;98039.72;10423288;28;20049;-72
2021/12/02 06:37:14;;;;;;;1.90;0.60;;;;;;;3.07;69.92;98046.97;10423529;28;20055;-72
2021/12/02 06:42:16;;;;;;;3.13;0.70;;;;;;;3.12;69.19;98059.78;10406165;28;20072;-72
2021/12/02 06:47:19;;;;;;;3.10;0.60;;;;;;;3.16;68.49;98071.78;10422850;28;20037;-71
2021/12/02 06:52:22;;;;;;;3.85;0.75;;;;;;;3.20;67.89;98082.00;10405239;28;20053;-72
2021/12/02 06:57:24;;;;;;;2.75;0.52;;;;;;;2.97;69.41;98095.75;10422847;28;20037;-71
2021/12/02 07:02:26;;;;;;;2.13;0.60;;;;;;;3.10;68.90;98105.69;10423077;28;20054;-73
2021/12/02 07:07:32;;;;;;;4.18;0.80;;;;;;;3.26;68.60;98104.31;10405368;28;20462;-73
2021/12/02 07:12:36;;;;;;;2.55;0.80;;;;;;;3.06;69.42;98107.56;10404265;28;20056;-72
2021/12/02 07:17:37;;;;;;;5.72;0.82;;;;;;;3.22;68.91;98113.09;10406362;28;20045;-70
2021/12/02 07:22:39;;;;;;;3.28;0.68;;;;;;;3.24;68.98;98108.72;10403752;28;20056;-71
2021/12/02 07:27:42;;;;;;;3.08;0.80;;;;;;;3.26;68.48;98119.88;10422449;28;20045;-71
2021/12/02 07:32:50;;;;;;;4.18;0.82;;;;;;;3.23;68.71;98127.78;10421024;28;20511;-71
2021/12/02 07:37:55;;;;;;;4.05;0.95;;;;;;;3.22;69.39;98139.06;10406250;28;20046;-71
2021/12/02 07:42:58;;;;;;;4.60;0.85;;;;;;;3.10;69.96;98142.91;10422521;28;20045;-73
2021/12/02 07:48:00;;;;;;;4.82;1.25;;;;;;;2.98;71.01;98151.09;10421947;28;20060;-72
2021/12/02 07:53:05;;;;;;;3.97;1.05;;;;;;;2.98;71.16;98154.53;10422313;28;20107;-74
2021/12/02 07:58:09;;;;;;;4.70;1.10;;;;;;;2.98;71.44;98161.47;10421936;28;20125;-71
2021/12/02 08:03:12;;;;;;;4.30;1.10;;;;;;;3.15;70.86;98169.59;10404489;28;20050;-71
2021/12/02 08:08:14;;;;;;;3.03;0.85;;;;;;;3.13;70.69;98170.50;10421280;28;20091;-72
2021/12/02 08:13:15;;;;;;;5.38;1.20;;;;;;;3.50;68.51;98183.19;10419604;28;20045;-72
2021/12/02 08:18:17;;;;;;;5.63;1.00;;;;;;;3.57;68.01;98182.06;10402642;28;20071;-74
2021/12/02 08:23:19;;;;;;;6.55;1.00;;;;;;;3.71;66.37;98184.19;10419755;28;20064;-72
2021/12/02 08:28:22;;;;;;;3.00;0.82;;;;;;;3.83;65.62;98204.56;10419208;28;20045;-72
2021/12/02 08:33:24;;;;;;;2.75;0.88;;;;;;;3.90;64.61;98200.88;10403097;28;20050;-73
2021/12/02 08:38:32;;;;;;;4.85;1.00;;;;;;;3.87;65.63;98210.53;10421442;28;20076;-73
2021/12/02 08:43:34;;;;;;;3.17;0.93;;;;;;;3.95;66.04;98222.38;10386771;28;20049;-73
2021/12/02 08:48:35;;;;;;;3.50;1.10;;;;;;;4.09;65.25;98229.69;10419402;28;20052;-72
2021/12/02 08:53:37;;;;;;;2.83;0.90;;;;;;;4.07;65.15;98234.06;10402175;28;20052;-72
2021/12/02 08:58:38;;;;;;;2.92;0.90;;;;;;;4.12;64.74;98236.50;10401581;28;20045;-72
2021/12/02 09:03:40;;;;;;;3.83;1.10;;;;;;;4.13;64.74;98227.84;10401639;28;20084;-73
2021/12/02 09:08:42;;;;;;;5.88;1.60;;;;;;;4.15;65.64;98239.03;10420587;28;20411;-72
2021/12/02 09:13:43;;;;;;;3.17;0.95;;;;;;;4.12;64.22;98249.53;10420822;28;20045;-72
2021/12/02 09:18:45;;;;;;;16.27;1.40;;;;;;;4.24;63.18;98246.50;10403886;28;20046;-72
2021/12/02 09:23:47;;;;;;;4.25;1.30;;;;;;;4.11;63.62;98250.44;10403095;28;20160;-72
2021/12/02 09:28:56;;;;;;;6.70;1.45;;;;;;;4.30;62.99;98254.13;10421441;28;20067;-72
2021/12/02 09:33:58;;;;;;;4.82;1.00;;;;;;;4.22;63.47;98243.13;10419929;28;20506;-72
2021/12/02 09:39:00;;;;;;;2.45;0.95;;;;;;;4.17;62.86;98247.63;10419350;28;20050;-71
2021/12/02 09:44:02;;;;;;;4.15;1.20;;;;;;;4.37;62.73;98252.13;10427467;28;20124;-72
2021/12/02 09:49:05;;;;;;;3.85;0.90;;;;;;;4.35;61.67;98246.16;10427349;28;20383;-72
2021/12/02 09:54:18;;;;;;;2.83;1.25;;;;;;;4.18;62.25;98257.13;10427918;28;20041;-73
2021/12/02 09:59:28;;;;;;;2.92;0.85;;;;;;;4.29;61.76;98255.88;10411274;28;20049;-71
2021/12/02 10:04:32;;;;;;;3.40;0.82;;;;;;;4.37;60.61;98250.38;10428867;28;20521;-71
2021/12/02 10:09:42;;;;;;;3.35;1.00;;;;;;;4.12;60.33;98244.31;10427980;28;20104;-72
2021/12/02 10:14:53;;;;;;;6.38;1.08;;;;;;;4.00;60.48;98238.66;10427300;28;20128;-71
2021/12/02 10:20:11;;;;;;;2.78;0.93;;;;;;;4.33;60.49;98246.19;10409798;28;20483;-71
2021/12/02 10:25:28;;;;;;;7.35;1.25;;;;;;;4.21;59.37;98257.88;10426942;28;20041;-72
2021/12/02 10:30:30;;;;;;;;;;;;;;;4.19;58.66;98264.03;10426666;28;20454;-71
2021/12/02 10:35:45;;;;;;;5.47;1.08;;;;;;;4.30;59.75;98260.16;10427562;28;19921;-72
2021/12/02 10:40:58;;;;;;;4.95;0.90;;;;;;;4.59;58.85;98275.63;10427275;28;20124;-71
2021/12/02 10:46:13;;;;;;;5.65;1.00;;;;;;;4.46;56.93;98273.47;10427647;28;20388;-71
2021/12/02 10:51:36;;;;;;;6.38;0.77;;;;;;;4.20;57.71;98284.75;10408796;28;20053;-71
2021/12/02 10:56:40;;;;;;;3.85;1.13;;;;;;;4.26;56.92;98278.53;10424768;28;20046;-72
2021/12/02 11:01:42;;;;;;;6.85;1.20;;;;;;;4.29;57.96;98274.06;10407243;28;20120;-71
2021/12/02 11:06:45;;;;;;;13.10;7.13;;;;;;;5.14;55.99;98271.88;10423858;28;20040;-72
2021/12/02 11:12:05;;;;;;;11.45;2.13;;;;;;;5.66;53.01;98264.59;10423808;28;20048;-73
2021/12/02 11:17:13;;;;;;;4.05;1.50;;;;;;;5.64;52.65;98271.66;10425109;28;20125;-73
2021/12/02 11:22:19;;;;;;;4.15;1.00;;;;;;;5.01;54.68;98281.91;10423287;28;20045;-72
2021/12/02 11:27:39;;;;;;;8.48;1.95;;;;;;;4.34;55.81;98292.13;10423411;28;20056;-72
2021/12/02 11:32:50;;;;;;;7.00;1.08;;;;;;;4.57;56.54;98303.47;10424417;28;20045;-71
2021/12/02 11:37:58;;;;;;;5.25;1.30;;;;;;;4.19;57.71;98297.81;10425016;28;20052;-72
2021/12/02 11:43:00;;;;;;;4.30;1.63;;;;;;;4.88;57.08;98287.63;10406079;28;20080;-72
2021/12/02 11:48:02;;;;;;;4.18;0.80;;;;;;;5.17;56.97;98289.13;10404793;28;20037;-72
2021/12/02 11:53:04;;;;;;;5.95;1.02;;;;;;;4.94;56.89;98289.97;10421274;28;20380;-72
2021/12/02 11:58:07;;;;;;;4.38;1.40;;;;;;;5.55;55.34;98290.25;10420648;28;20049;-72
2021/12/02 12:03:13;;;;;;;7.38;0.90;;;;;;;6.86;50.72;98286.50;10419489;28;20045;-73
2021/12/02 12:08:37;;;;;;;5.43;1.05;;;;;;;6.40;51.23;98291.13;10387177;28;20049;-72
2021/12/02 12:13:46;;;;;;;4.05;0.70;;;;;;;6.53;49.46;98297.53;10422604;28;20053;-72
2021/12/02 12:18:56;;;;;;;5.38;1.10;;;;;;;6.18;50.80;98293.78;10422255;28;20029;-72
2021/12/02 12:24:01;;;;;;;3.95;1.50;;;;;;;5.83;51.43;98303.03;10422332;28;20071;-71
2021/12/02 12:29:03;;;;;;;2.60;1.02;;;;;;;5.22;53.90;98298.47;10421696;28;20045;-71
2021/12/02 12:34:40;;;;;;;6.50;3.05;;;;;;;5.23;53.17;98301.94;10421001;28;20045;-72
2021/12/02 12:39:41;;;;;;;4.82;2.13;;;;;;;5.28;55.16;98298.22;10403424;28;20091;-72
2021/12/02 12:44:50;;;;;;;10.30;3.42;;;;;;;5.37;52.79;98301.41;10419648;28;20038;-72
2021/12/02 12:50:24;;;;;;;6.93;3.22;;;;;;;5.30;53.28;98301.63;10401896;28;20048;-72
2021/12/02 12:55:26;;;;;;;4.93;1.65;;;;;;;4.96;54.54;98311.63;10419504;28;20087;-72
2021/12/02 13:00:41;;;;;;;4.10;1.10;;;;;;;4.91;54.28;98313.50;10419494;28;20041;-71
2021/12/02 13:11:21;;;;;;;2.90;1.10;;;;;;;4.61;54.39;98323.28;10293050;28;20054;-73
2021/12/02 13:16:23;;;;;;;6.60;1.40;;;;;;;4.32;54.33;98334.69;10291765;28;20125;-71
2021/12/02 13:21:28;;;;;;;4.68;1.15;;;;;;;4.25;56.32;98334.91;10293616;28;20133;-72
2021/12/02 13:26:37;;;;;;;8.38;1.70;;;;;;;4.20;56.62;98339.38;10291699;28;20065;-74
2021/12/02 13:31:51;;;;;;;9.20;1.42;;;;;;;4.39;55.65;98344.00;10291765;28;20058;-72
2021/12/02 13:37:01;;;;;;;5.60;1.88;;;;;;;4.27;56.07;98350.44;10292605;28;20051;-72
2021/12/02 13:42:06;;;;;;;3.13;1.35;;;;;;;4.14;56.58;98338.75;10292199;28;20066;-72
2021/12/02 13:47:17;;;;;;;5.30;1.58;;;;;;;4.01;56.80;98344.34;10358976;28;20087;-71
2021/12/02 13:52:41;;;;;;;4.00;1.13;;;;;;;4.03;57.66;98354.72;10417774;28;20041;-71
2021/12/02 13:58:00;;;;;;;10.32;3.17;;;;;;;3.97;57.75;98352.28;10417712;28;20045;-72
2021/12/02 14:03:07;;;;;;;4.75;1.30;;;;;;;3.87;59.12;98362.13;10417971;28;20569;-71
2021/12/02 14:08:11;;;;;;;3.27;0.80;;;;;;;3.84;58.55;98362.22;10416929;28;20038;-71
2021/12/02 14:13:18;;;;;;;4.28;1.40;;;;;;;3.77;59.51;98366.78;10416452;28;20563;-71
2021/12/02 14:18:23;;;;;;;5.30;1.90;;;;;;;3.67;60.55;98367.94;10416830;28;20499;-70
2021/12/02 14:23:28;;;;;;;50.35;29.40;;;;;;;3.95;59.15;98377.50;10418064;28;20103;-73
2021/12/02 14:28:43;;;;;;;15.10;13.15;;;;;;;4.00;59.29;98397.25;10423150;28;20112;-71
2021/12/02 14:33:45;;;;;;;4.35;2.00;;;;;;;3.71;60.96;98403.31;10406797;28;20124;-71
2021/12/02 14:39:06;;;;;;;8.38;3.92;;;;;;;3.93;60.64;98407.88;10424827;28;20046;-71
2021/12/02 14:44:11;;;;;;;3.90;2.17;;;;;;;3.49;61.89;98415.25;10405727;28;20467;-71
2021/12/02 14:49:45;;;;;;;11.82;5.55;;;;;;;3.55;62.22;98420.28;10425013;28;20486;-71
2021/12/02 14:54:50;;;;;;;21.65;16.05;;;;;;;3.51;62.72;98424.72;10422991;28;20415;-71
2021/12/02 14:59:56;;;;;;;5.88;3.25;;;;;;;3.29;63.47;98439.22;10388921;28;20052;-71
2021/12/02 15:05:02;;;;;;;12.30;2.90;;;;;;;3.46;62.83;98446.53;10422905;28;20045;-71
2021/12/02 15:10:23;;;;;;;13.57;3.70;;;;;;;3.27;63.91;98453.97;10423766;28;20079;-71
2021/12/02 15:15:30;;;;;;;7.00;3.70;;;;;;;3.34;63.84;98465.06;10423061;28;20037;-70
2021/12/02 15:20:34;;;;;;;9.00;4.00;;;;;;;3.70;62.33;98474.38;10404896;28;20523;-71
2021/12/02 15:25:39;;;;;;;4.15;2.20;;;;;;;3.37;64.13;98483.16;10422801;28;20038;-71
2021/12/02 15:30:40;;;;;;;6.57;2.35;;;;;;;3.51;63.71;98501.81;10421563;28;20049;-71
2021/12/02 15:35:42;;;;;;;5.75;2.05;;;;;;;3.53;63.42;98505.19;10422104;28;20129;-72
2021/12/02 15:40:45;;;;;;;4.82;1.83;;;;;;;3.57;63.57;98506.81;10420908;28;20083;-72
2021/12/02 15:45:48;;;;;;;7.43;3.17;;;;;;;3.32;64.64;98516.16;10421193;28;20056;-71
2021/12/02 15:50:50;;;;;;;4.90;3.08;;;;;;;3.29;65.08;98528.34;10422054;28;20042;-71
2021/12/02 15:55:53;;;;;;;11.68;2.38;;;;;;;2.98;65.58;98527.44;10403911;28;20049;-71
2021/12/02 16:00:59;;;;;;;11.65;2.75;;;;;;;3.14;65.56;98536.53;10402517;28;20056;-71
2021/12/02 16:11:18;;;;;;;8.55;2.75;;;;;;;3.49;64.32;98552.94;10403164;28;20436;-71
2021/12/02 16:16:20;;;;;;;4.75;2.60;;;;;;;3.08;65.13;98559.22;10421445;28;20126;-72
2021/12/02 16:21:22;;;;;;;4.85;1.90;;;;;;;2.95;63.24;98556.91;10421792;28;20041;-71
2021/12/02 16:26:24;;;;;;;8.43;2.83;;;;;;;2.99;60.78;98561.13;10421488;28;20037;-73
2021/12/02 16:31:26;;;;;;;4.95;1.83;;;;;;;3.22;58.66;98577.88;10402110;28;20052;-72
2021/12/02 16:36:28;;;;;;;5.72;2.20;;;;;;;2.96;59.29;98589.75;10418298;28;20403;-72
2021/12/02 16:41:30;;;;;;;8.32;3.28;;;;;;;3.03;60.40;98601.72;10387540;28;20499;-71
2021/12/02 16:46:32;;;;;;;6.13;2.03;;;;;;;2.98;61.21;98607.91;10421643;28;20073;-72
2021/12/02 16:51:35;;;;;;;4.35;2.08;;;;;;;3.04;61.91;98616.38;10421733;28;20124;-72
2021/12/02 16:56:37;;;;;;;4.40;1.80;;;;;;;3.10;61.82;98614.53;10422477;28;20042;-71
2021/12/02 17:01:39;;;;;;;4.70;2.00;;;;;;;2.85;63.48;98628.09;10421615;28;20415;-72
2021/12/02 17:06:41;;;;;;;7.05;2.58;;;;;;;3.06;62.44;98631.09;10402902;28;20064;-72
2021/12/02 17:11:42;;;;;;;6.07;2.42;;;;;;;3.19;61.31;98642.91;10419494;28;20057;-72
2021/12/02 17:16:44;;;;;;;3.92;1.85;;;;;;;3.14;59.85;98644.72;10401252;28;20410;-72
2021/12/02 17:21:45;;;;;;;4.63;3.38;;;;;;;3.18;59.02;98660.19;10402344;28;20053;-71
2021/12/02 17:26:47;;;;;;;6.05;2.53;;;;;;;3.21;58.39;98667.06;10386114;28;20041;-72
2021/12/02 17:31:49;;;;;;;10.38;6.90;;;;;;;3.13;59.60;98676.78;10401208;28;20045;-71
2021/12/02 17:36:51;;;;;;;19.05;13.50;;;;;;;2.82;62.48;98680.06;10402361;28;20100;-71
2021/12/02 17:41:54;;;;;;;63.33;30.05;;;;;;;2.92;62.52;98691.09;10419359;28;20045;-70
2021/12/02 17:47:03;;;;;;;7.18;3.53;;;;;;;2.82;61.19;98695.63;10418825;28;20041;-70
2021/12/02 17:52:05;;;;;;;7.45;4.70;;;;;;;2.89;59.96;98704.16;10400755;28;20046;-72
2021/12/02 17:57:07;;;;;;;54.10;19.48;;;;;;;2.73;58.42;98709.66;10400497;28;20099;-71
2021/12/02 18:02:14;;;;;;;9.77;4.47;;;;;;;2.57;53.58;98705.72;10419662;28;20052;-71
2021/12/02 18:07:18;;;;;;;4.73;1.47;;;;;;;2.37;52.65;98713.88;10408216;28;20049;-71
2021/12/02 18:12:19;;;;;;;37.60;24.00;;;;;;;2.68;50.24;98729.66;10425410;28;20658;-71
2021/12/02 18:17:41;;;;;;;7.25;6.53;;;;;;;2.40;53.83;98736.31;10424810;28;20132;-71
2021/12/02 18:22:43;;;;;;;99.47;50.85;;;;;;;2.55;51.10;98743.78;10424027;28;20054;-70
2021/12/02 18:27:46;;;;;;;12.13;10.93;;;;;;;2.68;51.23;98753.03;10406974;28;20041;-70
2021/12/02 18:32:49;;;;;;;13.68;10.73;;;;;;;2.47;53.42;98751.69;10424430;28;20203;-71
2021/12/02 18:37:51;;;;;;;8.88;7.35;;;;;;;2.34;53.64;98762.34;10407128;28;20467;-71
2021/12/02 18:42:53;;;;;;;20.80;16.60;;;;;;;2.68;51.26;98759.94;10424108;28;20041;-71
2021/12/02 18:47:55;;;;;;;34.38;22.85;;;;;;;2.56;52.61;98776.59;10424597;28;20037;-70
2021/12/02 18:52:57;;;;;;;18.27;16.48;;;;;;;2.28;53.79;98779.72;10389942;28;20132;-70
2021/12/02 18:57:59;;;;;;;8.30;7.00;;;;;;;2.04;55.01;98787.97;10424643;28;20115;-71
2021/12/02 19:03:01;;;;;;;7.70;5.70;;;;;;;1.96;56.26;98793.28;10408620;28;20049;-71
2021/12/02 19:29:22;;;;;;;11.80;10.65;;;;;;;1.04;63.29;98816.22;10422342;28;20049;-72
2021/12/02 19:34:23;;;;;;;15.63;11.90;;;;;;;1.05;63.83;98823.13;10424526;28;20132;-71
2021/12/02 19:39:25;;;;;;;6.13;4.18;;;;;;;0.96;64.17;98835.28;10424565;28;20045;-71
2021/12/02 19:44:27;;;;;;;4.53;3.47;;;;;;;0.88;64.66;98849.19;10424975;28;20121;-73
2021/12/02 19:49:29;;;;;;;2.67;1.35;;;;;;;0.80;65.36;98861.34;10423330;28;20037;-71
2021/12/02 19:54:30;;;;;;;3.10;1.15;;;;;;;0.89;64.84;98862.13;10424426;28;20060;-72
2021/12/02 19:59:32;;;;;;;3.50;1.00;;;;;;;0.94;63.46;98873.28;10424033;28;20053;-72
2021/12/02 20:04:35;;;;;;;3.25;1.30;;;;;;;0.81;63.89;98892.41;10423302;28;20095;-71
2021/12/02 20:09:36;;;;;;;3.13;1.10;;;;;;;0.95;63.30;98900.84;10423318;28;20041;-72
2021/12/02 20:14:38;;;;;;;4.22;1.10;;;;;;;0.77;64.25;98914.00;10403987;28;20056;-71
2021/12/02 20:19:40;;;;;;;4.97;1.00;;;;;;;0.76;65.04;98920.03;10404682;28;20053;-72
2021/12/02 20:24:41;;;;;;;4.18;1.20;;;;;;;0.68;65.45;98933.03;10422143;28;20037;-72
2021/12/02 20:29:43;;;;;;;1.63;1.33;;;;;;;0.77;65.62;98933.84;10423098;28;20111;-71
2021/12/02 20:34:45;;;;;;;4.03;1.20;;;;;;;0.65;66.50;98934.78;10427402;28;20052;-71
2021/12/02 20:39:46;;;;;;;2.80;1.25;;;;;;;0.59;66.78;98945.22;10462174;28;20040;-71
2021/12/02 20:44:54;;;;;;;1.65;1.38;;;;;;;0.59;67.16;98952.97;10463926;28;20502;-71
2021/12/02 20:49:59;;;;;;;;;;;;;;;0.67;66.76;98957.19;10466216;28;20037;-70
2021/12/02 20:55:05;;;;;;;2.28;1.45;;;;;;;0.40;67.81;98976.41;10465896;28;19921;-72
2021/12/02 21:00:13;;;;;;;3.05;1.35;;;;;;;0.52;68.56;98971.97;10432218;28;20044;-72
2021/12/02 21:05:15;;;;;;;3.47;1.80;;;;;;;0.54;68.70;98972.84;10464124;28;20092;-72
2021/12/02 21:10:17;;;;;;;3.28;1.50;;;;;;;0.69;68.53;98977.88;10463935;28;20086;-72
2021/12/02 21:15:22;;;;;;;3.65;1.48;;;;;;;0.72;68.88;98980.44;10445720;28;20055;-71
2021/12/02 21:20:26;;;;;;;3.25;1.52;;;;;;;0.83;68.72;98975.16;10445642;28;20049;-71
2021/12/02 21:25:29;;;;;;;5.00;2.70;;;;;;;0.78;69.55;98990.72;10463672;28;20453;-72
2021/12/02 21:30:30;;;;;;;4.18;2.03;;;;;;;0.91;68.87;98991.47;10463127;28;20434;-71
2021/12/02 21:35:32;;;;;;;4.47;3.05;;;;;;;0.88;69.25;98999.25;10462444;28;20103;-70
2021/12/02 21:40:34;;;;;;;4.20;2.25;;;;;;;0.81;69.82;99005.38;10471418;28;20055;-71
2021/12/02 21:45:38;;;;;;;4.30;3.13;;;;;;;0.83;70.28;99007.03;10470112;28;20106;-72
2021/12/02 21:50:40;;;;;;;5.47;2.50;;;;;;;0.79;71.01;99017.44;10452104;28;20414;-71
2021/12/02 21:55:44;;;;;;;4.43;2.63;;;;;;;0.75;71.31;99032.13;10470056;28;20045;-71
2021/12/02 22:01:00;;;;;;;4.93;3.08;;;;;;;0.80;71.81;99032.97;10452083;28;20056;-70
2021/12/02 22:06:02;;;;;;;8.55;4.10;;;;;;;0.95;71.81;99029.38;10469638;28;20475;-71
2021/12/02 22:11:05;;;;;;;7.85;4.38;;;;;;;1.01;70.73;99039.66;10468921;28;20147;-73
2021/12/02 22:16:06;;;;;;;4.22;3.45;;;;;;;0.96;71.30;99046.59;10469427;28;20041;-71
2021/12/02 22:21:08;;;;;;;6.80;3.30;;;;;;;0.83;71.55;99060.53;10468949;28;20106;-71
2021/12/02 22:26:09;;;;;;;6.63;3.20;;;;;;;0.82;71.83;99069.16;10450365;28;20037;-72
2021/12/02 22:31:11;;;;;;;5.97;3.80;;;;;;;0.49;73.07;99082.34;10449803;28;20114;-71
2021/12/02 22:36:14;;;;;;;5.95;3.78;;;;;;;0.49;72.94;99086.66;10468205;28;20040;-71
2021/12/02 22:41:16;;;;;;;4.78;3.83;;;;;;;0.34;73.06;99079.81;10452513;28;20049;-72
2021/12/02 22:46:20;;;;;;;4.85;3.00;;;;;;;0.41;72.54;99088.41;10469675;28;20108;-72
2021/12/02 22:51:22;;;;;;;6.43;3.13;;;;;;;0.31;72.69;99094.47;10468189;28;20041;-71
2021/12/02 22:56:27;;;;;;;3.75;2.83;;;;;;;0.29;71.78;99104.84;10450412;28;20075;-70
2021/12/02 23:01:29;;;;;;;6.05;2.67;;;;;;;0.11;72.12;99110.09;10434342;28;20056;-71
2021/12/02 23:06:32;;;;;;;5.68;2.60;;;;;;;0.01;72.29;99116.19;10467261;28;20041;-72
2021/12/02 23:11:33;;;;;;;7.45;3.03;;;;;;;-0.06;72.79;99123.09;10449302;28;20067;-71
2021/12/02 23:16:38;;;;;;;4.40;2.83;;;;;;;0.13;72.06;99124.72;10467249;28;20041;-71
2021/12/02 23:21:39;;;;;;;6.10;3.05;;;;;;;-0.11;73.47;99136.03;10465797;28;20075;-72
2021/12/02 23:26:53;;;;;;;5.70;3.30;;;;;;;0.05;73.07;99135.97;10448268;28;20045;-71
2021/12/02 23:31:57;;;;;;;6.70;3.40;;;;;;;-0.31;73.94;99138.69;10465986;28;20045;-71
2021/12/02 23:36:59;;;;;;;4.80;2.38;;;;;;;-0.22;74.32;99149.81;10466451;28;20052;-71
2021/12/02 23:42:01;;;;;;;4.25;3.35;;;;;;;-0.33;74.63;99142.09;10447594;28;20041;-70
2021/12/02 23:47:03;;;;;;;4.65;2.47;;;;;;;-0.46;75.25;99155.91;10445987;28;20044;-72
2021/12/02 23:52:05;;;;;;;3.97;2.72;;;;;;;-0.18;74.59;99160.13;10463316;28;20072;-71
2021/12/02 23:57:30;;;;;;;7.68;3.30;;;;;;;-0.24;74.29;99160.16;10445707;28;20064;-72
